Time;durP1;ratioP1;P1;durP2;ratioP2;P2;SDS_P1;SDS_P2;PMS_P1;PMS_P2;Temp;Humidity;BMP_temperature;BMP_pressure;BME280_temperature;BME280_humidity;BME280_pressure;Samples;Min_cycle;Max_cycle;Signal;HPM_P1;HPM_P2
2021/05/14 00:01:52;;;;;;;521.80;349.88;;;;;;;;;;5022890;28;20021;-83
2021/05/14 00:04:19;;;;;;;522.92;352.85;;;;;;;;;;5027246;28;20388;-87
2021/05/14 00:06:48;;;;;;;515.45;345.73;;;;;;;;;;5024740;28;20051;-84
2021/05/14 00:09:15;;;;;;;516.97;342.10;;;;;;;;;;5029638;28;20063;-86
2021/05/14 00:11:42;;;;;;;515.15;341.08;;;;;;;;;;5044919;28;20758;-83
2021/05/14 00:14:08;;;;;;;526.15;350.92;;;;;;;;;;5028561;28;20175;-80
2021/05/14 00:16:34;;;;;;;519.85;346.23;;;;;;;;;;5043844;28;20115;-83
2021/05/14 00:19:00;;;;;;;519.33;343.48;;;;;;;;;;5023743;28;20171;-84
2021/05/14 00:21:27;;;;;;;521.78;356.88;;;;;;;;;;5026522;28;20028;-83
2021/05/14 00:23:53;;;;;;;526.05;354.60;;;;;;;;;;5025838;28;20029;-84
2021/05/14 00:26:19;;;;;;;521.67;346.48;;;;;;;;;;5028231;28;20048;-84
2021/05/14 00:28:45;;;;;;;524.25;346.50;;;;;;;;;;5019156;28;20384;-84
2021/05/14 00:31:11;;;;;;;529.42;353.50;;;;;;;;;;5024327;28;20120;-83
2021/05/14 00:33:37;;;;;;;581.40;396.23;;;;;;;;;;5026418;28;20029;-84
2021/05/14 00:36:04;;;;;;;530.35;357.80;;;;;;;;;;5024456;28;20040;-84
2021/05/14 00:38:30;;;;;;;527.00;353.67;;;;;;;;;;5027663;28;20032;-85
2021/05/14 00:40:56;;;;;;;522.85;355.08;;;;;;;;;;5027406;28;20028;-84
2021/05/14 00:43:22;;;;;;;510.10;345.27;;;;;;;;;;5045911;28;20028;-84
2021/05/14 00:45:48;;;;;;;505.42;337.02;;;;;;;;;;5027098;28;20033;-83
2021/05/14 00:48:14;;;;;;;521.10;348.00;;;;;;;;;;5044367;28;20494;-82
2021/05/14 00:50:41;;;;;;;528.28;354.42;;;;;;;;;;5025861;28;20112;-83
2021/05/14 00:53:07;;;;;;;528.42;353.40;;;;;;;;;;5027041;28;20085;-84
2021/05/14 00:55:33;;;;;;;545.28;368.13;;;;;;;;;;5045907;28;20052;-85
2021/05/14 00:57:59;;;;;;;539.78;357.55;;;;;;;;;;5042802;28;20397;-82
2021/05/14 01:00:25;;;;;;;534.50;354.85;;;;;;;;;;5043582;28;20028;-82
2021/05/14 01:02:52;;;;;;;541.97;355.30;;;;;;;;;;5021997;28;20028;-83
2021/05/14 01:05:19;;;;;;;548.33;366.35;;;;;;;;;;5027918;28;20029;-84
2021/05/14 01:07:45;;;;;;;543.67;353.30;;;;;;;;;;5043719;28;20050;-83
2021/05/14 01:10:11;;;;;;;550.03;363.88;;;;;;;;;;5026211;28;20086;-82
2021/05/14 01:12:37;;;;;;;546.67;372.13;;;;;;;;;;5027204;28;20021;-83
2021/05/14 01:15:03;;;;;;;554.97;377.08;;;;;;;;;;5023486;28;20037;-84
2021/05/14 01:17:30;;;;;;;549.13;366.05;;;;;;;;;;5026160;28;20063;-82
2021/05/14 01:19:56;;;;;;;559.22;365.55;;;;;;;;;;5023850;28;20028;-87
2021/05/14 01:22:25;;;;;;;564.63;369.65;;;;;;;;;;5045482;28;20427;-83
2021/05/14 01:24:51;;;;;;;577.95;384.55;;;;;;;;;;5025857;28;20112;-83
2021/05/14 01:27:17;;;;;;;560.25;364.83;;;;;;;;;;5025680;28;20103;-83
2021/05/14 01:29:44;;;;;;;586.63;379.83;;;;;;;;;;5020737;28;20075;-83
2021/05/14 01:32:10;;;;;;;562.15;367.10;;;;;;;;;;5025227;28;20035;-83
2021/05/14 01:34:36;;;;;;;560.22;368.90;;;;;;;;;;5025411;28;20410;-83
2021/05/14 01:37:02;;;;;;;577.33;387.75;;;;;;;;;;5020310;28;20021;-83
2021/05/14 01:39:28;;;;;;;565.90;369.65;;;;;;;;;;5022643;28;20031;-82
2021/05/14 01:41:54;;;;;;;567.00;372.25;;;;;;;;;;5020868;28;20028;-83
2021/05/14 01:44:21;;;;;;;565.50;374.67;;;;;;;;;;5027697;28;20032;-82
2021/05/14 01:46:47;;;;;;;562.30;374.52;;;;;;;;;;5045185;28;20358;-83
2021/05/14 01:49:13;;;;;;;550.17;359.33;;;;;;;;;;5023049;28;20490;-82
2021/05/14 01:51:39;;;;;;;560.75;363.65;;;;;;;;;;5027325;28;20773;-82
2021/05/14 01:54:05;;;;;;;572.03;376.33;;;;;;;;;;5038411;28;20033;-84
2021/05/14 01:56:32;;;;;;;578.67;382.30;;;;;;;;;;5026966;28;20200;-82
2021/05/14 01:58:58;;;;;;;575.25;379.00;;;;;;;;;;5021327;28;20033;-83
2021/05/14 02:01:25;;;;;;;532.50;346.02;;;;;;;;;;5025174;28;20061;-82
2021/05/14 02:03:51;;;;;;;522.67;335.52;;;;;;;;;;5026287;28;20033;-82
2021/05/14 02:06:17;;;;;;;534.25;350.67;;;;;;;;;;5023433;28;20048;-83
2021/05/14 02:08:43;;;;;;;548.47;357.77;;;;;;;;;;5026445;28;20068;-83
2021/05/14 02:11:09;;;;;;;537.75;345.33;;;;;;;;;;5027440;28;20571;-82
2021/05/14 02:13:39;;;;;;;575.85;379.90;;;;;;;;;;5032530;28;20024;-82
2021/05/14 02:16:06;;;;;;;600.88;389.90;;;;;;;;;;5028378;28;20344;-84
2021/05/14 02:18:33;;;;;;;586.65;384.08;;;;;;;;;;5026153;28;20325;-82
2021/05/14 02:20:59;;;;;;;563.35;369.17;;;;;;;;;;5026531;28;20032;-83
2021/05/14 02:23:25;;;;;;;566.08;367.42;;;;;;;;;;5030501;28;20035;-82
2021/05/14 02:25:51;;;;;;;528.17;344.40;;;;;;;;;;5047881;28;20033;-80
2021/05/14 02:28:17;;;;;;;538.50;349.80;;;;;;;;;;5026602;28;20072;-85
2021/05/14 02:30:43;;;;;;;539.10;341.55;;;;;;;;;;5026569;28;20440;-82
2021/05/14 02:33:09;;;;;;;583.00;380.55;;;;;;;;;;5024381;28;20026;-82
2021/05/14 02:35:35;;;;;;;585.22;382.65;;;;;;;;;;5028119;28;20025;-83
2021/05/14 02:38:02;;;;;;;561.72;360.88;;;;;;;;;;5026518;28;20112;-83
2021/05/14 02:40:28;;;;;;;559.88;361.98;;;;;;;;;;5028388;28;20029;-83
2021/05/14 02:42:55;;;;;;;556.47;365.80;;;;;;;;;;5027903;28;20017;-82
2021/05/14 02:45:21;;;;;;;544.78;347.73;;;;;;;;;;5049395;28;20041;-84
2021/05/14 02:47:47;;;;;;;524.83;341.48;;;;;;;;;;5024777;28;20036;-83
2021/05/14 02:50:13;;;;;;;532.25;343.20;;;;;;;;;;5028590;28;20024;-83
2021/05/14 02:52:39;;;;;;;552.50;354.65;;;;;;;;;;5047382;28;20080;-83
2021/05/14 02:55:05;;;;;;;564.30;367.65;;;;;;;;;;5023913;28;20044;-84
2021/05/14 02:57:31;;;;;;;573.92;378.40;;;;;;;;;;5029771;28;20071;-82
2021/05/14 02:59:57;;;;;;;554.78;361.73;;;;;;;;;;5030484;28;20025;-82
2021/05/14 03:02:23;;;;;;;555.50;352.83;;;;;;;;;;5021910;28;20063;-84
2021/05/14 03:04:49;;;;;;;566.05;371.70;;;;;;;;;;5030450;28;20056;-83
2021/05/14 03:07:15;;;;;;;554.30;364.23;;;;;;;;;;5047628;28;20524;-82
2021/05/14 03:09:41;;;;;;;542.80;351.70;;;;;;;;;;5027443;28;20040;-82
2021/05/14 03:12:08;;;;;;;529.13;346.67;;;;;;;;;;5029913;28;20033;-83
2021/05/14 03:14:34;;;;;;;522.13;335.13;;;;;;;;;;5046462;28;20017;-83
2021/05/14 03:17:00;;;;;;;527.95;340.42;;;;;;;;;;5047517;28;20051;-83
2021/05/14 03:19:26;;;;;;;535.08;346.50;;;;;;;;;;5029677;28;20035;-83
2021/05/14 03:21:52;;;;;;;533.45;341.33;;;;;;;;;;5029342;28;20025;-83
2021/05/14 03:24:18;;;;;;;537.80;348.67;;;;;;;;;;5028022;28;20563;-82
2021/05/14 03:26:47;;;;;;;557.70;356.70;;;;;;;;;;5047082;28;20060;-83
2021/05/14 03:29:14;;;;;;;583.80;375.00;;;;;;;;;;5047571;28;20511;-82
2021/05/14 03:31:41;;;;;;;551.85;356.17;;;;;;;;;;5043328;28;20029;-82
2021/05/14 03:34:09;;;;;;;545.33;348.17;;;;;;;;;;5025670;28;20040;-82
2021/05/14 03:36:35;;;;;;;532.35;342.75;;;;;;;;;;5024453;28;20517;-83
2021/05/14 03:39:07;;;;;;;534.00;337.33;;;;;;;;;;5025298;28;21473;-82
2021/05/14 03:41:43;;;;;;;541.78;349.80;;;;;;;;;;5047363;28;20516;-84
2021/05/14 03:44:09;;;;;;;537.15;344.23;;;;;;;;;;5024124;28;20429;-83
2021/05/14 03:46:35;;;;;;;532.42;344.83;;;;;;;;;;5027972;28;20033;-84
2021/05/14 03:49:02;;;;;;;529.05;349.17;;;;;;;;;;5046542;28;20444;-82
2021/05/14 03:51:28;;;;;;;530.03;343.17;;;;;;;;;;5028740;28;20029;-84
2021/05/14 03:53:55;;;;;;;531.15;346.05;;;;;;;;;;5028663;28;20032;-85
2021/05/14 03:56:21;;;;;;;620.28;397.08;;;;;;;;;;5029269;28;20124;-83
2021/05/14 03:58:46;;;;;;;508.35;323.65;;;;;;;;;;5019575;28;20139;-84
2021/05/14 04:01:12;;;;;;;502.48;332.77;;;;;;;;;;5020522;28;20552;-83
2021/05/14 04:03:39;;;;;;;498.25;327.67;;;;;;;;;;5025808;28;20037;-84
2021/05/14 04:06:05;;;;;;;495.20;322.38;;;;;;;;;;5029374;28;20060;-83
2021/05/14 04:08:31;;;;;;;493.65;322.98;;;;;;;;;;5030309;28;20037;-84
2021/05/14 04:16:13;;;;;;;478.23;310.90;;;;;;;;;;5045030;28;20044;-83
2021/05/14 04:18:39;;;;;;;486.75;314.98;;;;;;;;;;5025088;28;20033;-82
2021/05/14 04:21:06;;;;;;;495.25;321.13;;;;;;;;;;5034130;28;20032;-83
2021/05/14 04:23:32;;;;;;;492.92;321.63;;;;;;;;;;5024716;28;20063;-84
2021/05/14 04:25:58;;;;;;;492.15;321.38;;;;;;;;;;5025640;28;20043;-83
2021/05/14 04:28:24;;;;;;;492.60;321.10;;;;;;;;;;5025901;28;20025;-85
2021/05/14 04:30:50;;;;;;;487.98;318.73;;;;;;;;;;5021724;28;20045;-85
2021/05/14 04:33:16;;;;;;;499.95;324.40;;;;;;;;;;5026420;28;20052;-85
2021/05/14 04:35:42;;;;;;;503.00;326.00;;;;;;;;;;5026222;28;20029;-83
2021/05/14 04:38:08;;;;;;;508.02;322.65;;;;;;;;;;5045763;28;20032;-83
2021/05/14 04:40:34;;;;;;;649.58;417.08;;;;;;;;;;5046461;28;20027;-83
2021/05/14 04:43:01;;;;;;;504.60;327.95;;;;;;;;;;5022555;28;20394;-84
2021/05/14 04:45:27;;;;;;;490.02;320.75;;;;;;;;;;5022184;28;20017;-82
2021/05/14 04:47:53;;;;;;;495.85;321.73;;;;;;;;;;5026579;28;20496;-83
2021/05/14 04:50:19;;;;;;;497.35;330.60;;;;;;;;;;5025818;28;20082;-83
2021/05/14 04:52:45;;;;;;;492.40;320.17;;;;;;;;;;5020696;28;20029;-82
2021/05/14 04:55:12;;;;;;;498.38;320.67;;;;;;;;;;5048741;28;20118;-85
2021/05/14 04:57:38;;;;;;;499.70;328.20;;;;;;;;;;5034656;28;20041;-84
2021/05/14 05:00:05;;;;;;;506.60;329.65;;;;;;;;;;5034675;28;20118;-84
2021/05/14 05:02:32;;;;;;;508.70;328.02;;;;;;;;;;5033846;28;20044;-83
2021/05/14 05:04:58;;;;;;;524.35;332.63;;;;;;;;;;5034698;28;20060;-84
2021/05/14 05:07:25;;;;;;;528.95;340.63;;;;;;;;;;5029267;28;20470;-84
2021/05/14 05:09:51;;;;;;;598.63;380.15;;;;;;;;;;5032226;28;20036;-83
2021/05/14 05:12:17;;;;;;;559.70;359.10;;;;;;;;;;5034643;28;21602;-85
2021/05/14 05:14:43;;;;;;;541.45;345.75;;;;;;;;;;5032609;28;20029;-84
2021/05/14 05:17:10;;;;;;;544.03;356.52;;;;;;;;;;5034871;28;20025;-84
2021/05/14 05:19:36;;;;;;;528.85;341.27;;;;;;;;;;5049395;28;20025;-82
2021/05/14 05:22:02;;;;;;;527.28;338.58;;;;;;;;;;5023436;28;20060;-83
2021/05/14 05:24:29;;;;;;;541.10;346.40;;;;;;;;;;5034188;28;20025;-84
2021/05/14 05:26:55;;;;;;;533.67;337.17;;;;;;;;;;5034009;28;20033;-82
2021/05/14 05:29:21;;;;;;;543.58;354.38;;;;;;;;;;5034146;28;20358;-82
2021/05/14 05:31:47;;;;;;;535.72;336.60;;;;;;;;;;5032415;28;20029;-84
2021/05/14 05:34:13;;;;;;;533.97;340.40;;;;;;;;;;5034179;28;20465;-84
2021/05/14 05:36:39;;;;;;;567.50;360.42;;;;;;;;;;5034423;28;20393;-86
2021/05/14 05:39:05;;;;;;;581.17;371.63;;;;;;;;;;5032210;28;20027;-85
2021/05/14 05:41:31;;;;;;;575.88;364.83;;;;;;;;;;5033425;28;20021;-84
2021/05/14 05:43:57;;;;;;;571.38;369.55;;;;;;;;;;5050470;28;20679;-84
2021/05/14 05:46:23;;;;;;;546.65;349.48;;;;;;;;;;5022970;28;20025;-87
2021/05/14 05:48:49;;;;;;;549.70;352.52;;;;;;;;;;5025192;28;20029;-84
2021/05/14 05:51:15;;;;;;;541.00;347.13;;;;;;;;;;5022359;28;20029;-84
2021/05/14 05:53:42;;;;;;;543.85;349.40;;;;;;;;;;5026049;28;20056;-85
2021/05/14 05:56:08;;;;;;;533.30;340.90;;;;;;;;;;5045483;28;20044;-84
2021/05/14 05:58:35;;;;;;;521.65;334.15;;;;;;;;;;5050457;28;20541;-83
2021/05/14 06:01:01;;;;;;;545.75;348.15;;;;;;;;;;5031012;28;20025;-84
2021/05/14 06:03:27;;;;;;;511.88;323.83;;;;;;;;;;5028293;28;20063;-83
2021/05/14 06:05:53;;;;;;;503.67;318.13;;;;;;;;;;5045811;28;20682;-84
2021/05/14 06:08:19;;;;;;;501.77;322.30;;;;;;;;;;5024174;28;20039;-84
2021/05/14 06:10:48;;;;;;;498.98;319.05;;;;;;;;;;5027138;28;20895;-86
2021/05/14 06:13:14;;;;;;;505.17;316.53;;;;;;;;;;5045185;28;20444;-83
2021/05/14 06:15:40;;;;;;;504.25;325.60;;;;;;;;;;5020322;28;20274;-83
2021/05/14 06:18:11;;;;;;;504.52;322.73;;;;;;;;;;5023055;28;20021;-84
2021/05/14 06:20:39;;;;;;;513.75;323.30;;;;;;;;;;5026158;28;20087;-83
2021/05/14 06:23:05;;;;;;;513.33;328.80;;;;;;;;;;5026471;28;20179;-84
2021/05/14 06:25:31;;;;;;;513.67;327.85;;;;;;;;;;5022983;28;20028;-84
2021/05/14 06:27:58;;;;;;;515.25;328.42;;;;;;;;;;5026176;28;20043;-82
2021/05/14 06:30:24;;;;;;;520.40;339.38;;;;;;;;;;5038457;28;20027;-82
2021/05/14 06:32:50;;;;;;;527.13;340.70;;;;;;;;;;5024769;28;20062;-85
2021/05/14 06:35:17;;;;;;;526.40;332.30;;;;;;;;;;5019579;28;20035;-85
2021/05/14 06:37:46;;;;;;;530.58;344.83;;;;;;;;;;5024686;28;20048;-86
2021/05/14 06:40:12;;;;;;;530.50;336.52;;;;;;;;;;5027412;28;20025;-85
2021/05/14 06:42:38;;;;;;;539.83;343.30;;;;;;;;;;5024689;28;20082;-84
2021/05/14 06:45:05;;;;;;;536.63;348.48;;;;;;;;;;5021295;28;20445;-85
2021/05/14 06:47:31;;;;;;;540.85;350.60;;;;;;;;;;5044715;28;20029;-83
2021/05/14 06:50:02;;;;;;;552.05;358.83;;;;;;;;;;5026120;28;20033;-83
2021/05/14 06:52:29;;;;;;;530.67;341.52;;;;;;;;;;5025131;28;20029;-82
2021/05/14 06:54:55;;;;;;;532.67;346.70;;;;;;;;;;5019938;28;20053;-83
2021/05/14 06:57:21;;;;;;;531.22;337.13;;;;;;;;;;5019210;28;20422;-84
2021/05/14 06:59:47;;;;;;;536.20;346.13;;;;;;;;;;5017862;28;20127;-83
2021/05/14 07:02:13;;;;;;;540.53;352.45;;;;;;;;;;5026814;28;20111;-82
2021/05/14 07:04:39;;;;;;;541.15;349.00;;;;;;;;;;5021115;28;20665;-85
2021/05/14 07:07:05;;;;;;;536.22;349.48;;;;;;;;;;5023807;28;20091;-84
2021/05/14 07:09:31;;;;;;;532.85;340.90;;;;;;;;;;5029020;28;20016;-83
2021/05/14 07:11:57;;;;;;;530.45;333.83;;;;;;;;;;5025711;28;20036;-81
2021/05/14 07:14:24;;;;;;;534.13;346.83;;;;;;;;;;5023484;28;20025;-84
2021/05/14 07:16:50;;;;;;;554.63;353.00;;;;;;;;;;5019055;28;20136;-83
2021/05/14 07:19:16;;;;;;;542.90;351.63;;;;;;;;;;5030885;28;20025;-84
2021/05/14 07:21:42;;;;;;;536.83;338.02;;;;;;;;;;5029490;28;20078;-83
2021/05/14 07:24:09;;;;;;;566.35;351.73;;;;;;;;;;5052130;28;20033;-84
2021/05/14 07:26:35;;;;;;;543.08;335.77;;;;;;;;;;5030276;28;20029;-86
2021/05/14 07:29:02;;;;;;;547.92;344.33;;;;;;;;;;5022843;28;20423;-85
2021/05/14 07:31:29;;;;;;;570.72;366.70;;;;;;;;;;5023739;28;20068;-83
2021/05/14 07:33:55;;;;;;;543.70;346.92;;;;;;;;;;5042177;28;20029;-83
2021/05/14 07:36:20;;;;;;;537.38;344.95;;;;;;;;;;5025505;28;20429;-83
2021/05/14 07:38:46;;;;;;;545.00;355.75;;;;;;;;;;5027510;28;20040;-83
2021/05/14 07:41:13;;;;;;;532.47;351.33;;;;;;;;;;5030116;28;20079;-85
2021/05/14 07:43:39;;;;;;;533.78;346.88;;;;;;;;;;5028225;28;20089;-83
2021/05/14 07:46:05;;;;;;;527.20;337.75;;;;;;;;;;5023162;28;20033;-83
2021/05/14 07:48:31;;;;;;;533.17;351.23;;;;;;;;;;5024878;28;20467;-83
2021/05/14 07:50:57;;;;;;;523.20;335.88;;;;;;;;;;5031256;28;20024;-84
2021/05/14 07:53:23;;;;;;;522.28;344.83;;;;;;;;;;5045673;28;20025;-85
2021/05/14 07:55:49;;;;;;;511.90;339.02;;;;;;;;;;5019730;28;20299;-85
2021/05/14 07:58:15;;;;;;;512.22;338.65;;;;;;;;;;5028786;28;20057;-84
2021/05/14 08:00:41;;;;;;;515.55;341.45;;;;;;;;;;5043084;28;20029;-81
2021/05/14 08:03:07;;;;;;;514.17;348.70;;;;;;;;;;5027569;28;20018;-82
2021/05/14 08:05:33;;;;;;;512.85;348.25;;;;;;;;;;5048458;28;20634;-82
2021/05/14 08:08:06;;;;;;;509.67;336.83;;;;;;;;;;5038198;28;20039;-84
2021/05/14 08:10:32;;;;;;;508.33;341.05;;;;;;;;;;5036691;28;20565;-84
2021/05/14 08:12:58;;;;;;;504.90;334.95;;;;;;;;;;5024481;28;20116;-82
2021/05/14 08:15:24;;;;;;;505.70;334.80;;;;;;;;;;5023846;28;20024;-82
2021/05/14 08:17:53;;;;;;;511.50;347.20;;;;;;;;;;5020903;28;20068;-82
2021/05/14 08:20:20;;;;;;;516.88;354.08;;;;;;;;;;5021629;28;20033;-84
2021/05/14 08:22:45;;;;;;;512.05;343.63;;;;;;;;;;5033643;28;20030;-83
2021/05/14 08:25:12;;;;;;;511.98;342.83;;;;;;;;;;5025292;28;20545;-81
2021/05/14 08:27:39;;;;;;;517.83;352.63;;;;;;;;;;5035831;28;20029;-82
2021/05/14 08:30:06;;;;;;;512.47;342.30;;;;;;;;;;5018137;28;20051;-81
2021/05/14 08:32:32;;;;;;;515.33;346.00;;;;;;;;;;5023375;28;20029;-81
2021/05/14 08:34:58;;;;;;;514.20;354.33;;;;;;;;;;5053726;28;20068;-86
2021/05/14 08:37:24;;;;;;;513.03;359.65;;;;;;;;;;5051319;28;20021;-84
2021/05/14 08:39:50;;;;;;;504.40;352.08;;;;;;;;;;5034093;28;20163;-80
2021/05/14 08:42:16;;;;;;;505.48;355.83;;;;;;;;;;5053752;28;20029;-82
2021/05/14 08:44:43;;;;;;;507.38;355.73;;;;;;;;;;5035817;28;20021;-84
2021/05/14 08:47:09;;;;;;;505.67;354.77;;;;;;;;;;5035812;28;20079;-83
2021/05/14 08:49:37;;;;;;;512.92;365.13;;;;;;;;;;5029477;28;20029;-82
2021/05/14 08:52:04;;;;;;;511.95;365.20;;;;;;;;;;5028360;28;20114;-82
2021/05/14 08:54:30;;;;;;;509.45;360.90;;;;;;;;;;5030471;28;20021;-78
2021/05/14 08:56:56;;;;;;;508.52;367.88;;;;;;;;;;5035429;28;20087;-88
2021/05/14 08:59:22;;;;;;;499.00;358.27;;;;;;;;;;5050568;28;20112;-79
2021/05/14 09:01:51;;;;;;;498.95;358.73;;;;;;;;;;5051744;28;20021;-80
2021/05/14 09:04:19;;;;;;;501.30;357.45;;;;;;;;;;5035622;28;20542;-81
2021/05/14 09:06:45;;;;;;;503.48;351.17;;;;;;;;;;5035628;28;20055;-79
2021/05/14 09:09:15;;;;;;;505.75;355.75;;;;;;;;;;5053333;28;20104;-83
2021/05/14 09:11:46;;;;;;;510.15;362.40;;;;;;;;;;5034987;28;20025;-82
2021/05/14 09:14:30;;;;;;;505.70;356.63;;;;;;;;;;5035432;28;20033;-82
2021/05/14 09:16:56;;;;;;;509.35;359.45;;;;;;;;;;5035125;28;20083;-79
2021/05/14 09:19:32;;;;;;;514.20;362.90;;;;;;;;;;5034476;28;20020;-81
2021/05/14 09:22:08;;;;;;;516.53;361.95;;;;;;;;;;5028539;28;20048;-82
2021/05/14 09:24:34;;;;;;;517.70;370.40;;;;;;;;;;5028595;28;20029;-82
2021/05/14 09:27:00;;;;;;;522.72;365.15;;;;;;;;;;5028018;28;20040;-80
2021/05/14 09:29:39;;;;;;;518.78;366.80;;;;;;;;;;5035448;28;20033;-83
2021/05/14 09:32:20;;;;;;;519.30;365.42;;;;;;;;;;5032608;28;20711;-80
2021/05/14 09:35:05;;;;;;;519.65;366.15;;;;;;;;;;5026268;28;20091;-81
2021/05/14 09:37:31;;;;;;;520.95;362.67;;;;;;;;;;5044817;28;20027;-83
2021/05/14 09:40:14;;;;;;;521.50;365.30;;;;;;;;;;5035201;28;20036;-83
2021/05/14 09:42:40;;;;;;;528.05;373.52;;;;;;;;;;5052879;28;20063;-80
2021/05/14 09:45:15;;;;;;;526.22;369.70;;;;;;;;;;5035091;28;20029;-83
2021/05/14 09:47:41;;;;;;;527.35;377.50;;;;;;;;;;5036843;28;20432;-82
2021/05/14 09:50:26;;;;;;;527.28;376.45;;;;;;;;;;5039394;28;20118;-83
2021/05/14 09:53:02;;;;;;;522.00;373.70;;;;;;;;;;5034423;28;20384;-80
2021/05/14 09:55:28;;;;;;;526.42;384.75;;;;;;;;;;5027204;28;20043;-83
2021/05/14 09:58:01;;;;;;;514.00;380.38;;;;;;;;;;5029256;28;20017;-80
2021/05/14 10:00:28;;;;;;;523.45;393.60;;;;;;;;;;5017154;28;20021;-82
2021/05/14 10:02:55;;;;;;;519.00;388.33;;;;;;;;;;5047511;28;20035;-82
2021/05/14 10:05:21;;;;;;;520.03;387.23;;;;;;;;;;5032460;28;20497;-82
2021/05/14 10:07:47;;;;;;;515.60;391.17;;;;;;;;;;5034395;28;20040;-83
2021/05/14 10:10:13;;;;;;;521.88;395.45;;;;;;;;;;5034676;28;20033;-82
2021/05/14 10:12:40;;;;;;;512.17;387.42;;;;;;;;;;5052769;28;20381;-75
2021/05/14 10:15:09;;;;;;;513.08;384.30;;;;;;;;;;5051441;28;20379;-76
2021/05/14 10:17:37;;;;;;;515.53;384.70;;;;;;;;;;5028971;28;20070;-78
2021/05/14 10:20:05;;;;;;;512.45;383.90;;;;;;;;;;5047981;28;20041;-81
2021/05/14 10:22:31;;;;;;;519.65;401.83;;;;;;;;;;5035138;28;20037;-82
2021/05/14 10:24:58;;;;;;;522.05;401.40;;;;;;;;;;5033985;28;20029;-80
2021/05/14 10:27:26;;;;;;;527.33;403.40;;;;;;;;;;5034604;28;20025;-80
2021/05/14 10:29:53;;;;;;;537.65;405.92;;;;;;;;;;5052495;28;20025;-79
2021/05/14 10:32:49;;;;;;;535.30;403.52;;;;;;;;;;5033028;28;20033;-80
2021/05/14 10:35:16;;;;;;;517.97;394.17;;;;;;;;;;5015756;28;20075;-78
2021/05/14 10:37:45;;;;;;;512.03;397.55;;;;;;;;;;5037996;28;20086;-79
2021/05/14 10:40:33;;;;;;;524.22;403.30;;;;;;;;;;5047267;28;20036;-77
2021/05/14 10:43:11;;;;;;;527.25;402.17;;;;;;;;;;5036130;28;20115;-80
2021/05/14 10:45:45;;;;;;;528.50;406.10;;;;;;;;;;5027404;28;20071;-82
2021/05/14 10:48:18;;;;;;;538.00;416.95;;;;;;;;;;5027966;28;20080;-82
2021/05/14 10:50:53;;;;;;;542.42;422.80;;;;;;;;;;5034990;28;20184;-78
2021/05/14 10:53:21;;;;;;;552.58;424.83;;;;;;;;;;5033409;28;20074;-81
2021/05/14 10:55:48;;;;;;;553.67;431.35;;;;;;;;;;5044938;28;20056;-83
2021/05/14 10:58:32;;;;;;;554.83;426.38;;;;;;;;;;5046477;28;20108;-82
2021/05/14 11:00:58;;;;;;;550.83;428.08;;;;;;;;;;5031305;28;20017;-78
2021/05/14 11:03:31;;;;;;;560.10;440.08;;;;;;;;;;5034467;28;20037;-79
2021/05/14 11:06:17;;;;;;;577.35;454.50;;;;;;;;;;5026246;28;20064;-83
2021/05/14 11:08:57;;;;;;;556.83;429.08;;;;;;;;;;5038072;28;20021;-80
2021/05/14 11:11:23;;;;;;;556.92;428.75;;;;;;;;;;5032394;28;20031;-80
2021/05/14 11:13:51;;;;;;;557.08;430.10;;;;;;;;;;5037722;28;20469;-84
2021/05/14 11:16:36;;;;;;;560.20;429.63;;;;;;;;;;5036739;28;20033;-80
2021/05/14 11:19:16;;;;;;;552.70;416.27;;;;;;;;;;5037213;28;20387;-79
2021/05/14 11:21:59;;;;;;;553.90;421.35;;;;;;;;;;5055452;28;20380;-81
2021/05/14 11:24:35;;;;;;;553.53;413.42;;;;;;;;;;5027053;28;20126;-81
2021/05/14 11:27:03;;;;;;;561.63;430.45;;;;;;;;;;5030920;28;20708;-78
2021/05/14 11:29:33;;;;;;;559.05;431.05;;;;;;;;;;5054516;28;20025;-79
2021/05/14 11:32:12;;;;;;;551.10;421.40;;;;;;;;;;5035440;28;20036;-78
2021/05/14 11:34:54;;;;;;;558.53;431.30;;;;;;;;;;5037137;28;20425;-79
2021/05/14 11:37:20;;;;;;;557.17;429.00;;;;;;;;;;5054120;28;20097;-79
2021/05/14 11:39:46;;;;;;;511.25;397.58;;;;;;;;;;5036997;28;20029;-78
2021/05/14 11:42:19;;;;;;;506.88;397.70;;;;;;;;;;5036972;28;20155;-81
2021/05/14 11:44:59;;;;;;;506.77;393.58;;;;;;;;;;5030441;28;20032;-77
2021/05/14 11:47:26;;;;;;;507.13;396.35;;;;;;;;;;5034397;28;20171;-79
2021/05/14 11:49:52;;;;;;;508.63;403.67;;;;;;;;;;5037188;28;20025;-83
2021/05/14 11:52:36;;;;;;;503.08;394.20;;;;;;;;;;5036881;28;20025;-83
2021/05/14 11:55:13;;;;;;;505.83;397.42;;;;;;;;;;5052160;28;20041;-77
2021/05/14 11:57:40;;;;;;;507.20;403.33;;;;;;;;;;5035853;28;20040;-81
2021/05/14 12:00:07;;;;;;;505.42;399.23;;;;;;;;;;5036011;28;20029;-78
2021/05/14 12:02:33;;;;;;;508.52;406.55;;;;;;;;;;5034337;28;20155;-80
2021/05/14 12:04:59;;;;;;;508.95;408.05;;;;;;;;;;5048869;28;20087;-80
2021/05/14 12:07:25;;;;;;;508.08;399.95;;;;;;;;;;5035437;28;20021;-79
2021/05/14 12:10:00;;;;;;;509.23;407.20;;;;;;;;;;5035507;28;20017;-78
2021/05/14 12:12:26;;;;;;;504.80;397.38;;;;;;;;;;5036078;28;20816;-81
2021/05/14 12:15:07;;;;;;;509.38;404.83;;;;;;;;;;5035099;28;20040;-81
2021/05/14 12:17:35;;;;;;;511.08;404.38;;;;;;;;;;5036322;28;20021;-80
2021/05/14 12:20:14;;;;;;;512.28;412.70;;;;;;;;;;5048832;28;20029;-83
2021/05/14 12:22:46;;;;;;;514.95;409.45;;;;;;;;;;5030864;28;20166;-83
2021/05/14 12:25:13;;;;;;;514.53;413.30;;;;;;;;;;5034410;28;20492;-78
2021/05/14 12:27:40;;;;;;;513.05;409.85;;;;;;;;;;5033495;28;20037;-88
2021/05/14 12:30:08;;;;;;;521.50;412.17;;;;;;;;;;5026312;28;20028;-78
2021/05/14 12:32:34;;;;;;;514.28;410.42;;;;;;;;;;5018782;28;20040;-82
2021/05/14 12:35:00;;;;;;;517.75;416.30;;;;;;;;;;5029675;28;20124;-79
2021/05/14 12:37:26;;;;;;;520.38;423.58;;;;;;;;;;5035319;28;20021;-80
2021/05/14 12:39:52;;;;;;;525.42;429.17;;;;;;;;;;5035902;28;20025;-78
2021/05/14 12:42:25;;;;;;;523.95;425.05;;;;;;;;;;5036211;28;20480;-78
2021/05/14 12:44:52;;;;;;;527.92;434.55;;;;;;;;;;5032713;28;20033;-81
2021/05/14 12:47:20;;;;;;;527.42;441.02;;;;;;;;;;5035981;28;20756;-80
2021/05/14 12:49:46;;;;;;;525.40;447.58;;;;;;;;;;5035353;28;20048;-77
2021/05/14 12:52:13;;;;;;;526.22;456.13;;;;;;;;;;5032135;28;20071;-76
2021/05/14 12:54:40;;;;;;;523.47;461.98;;;;;;;;;;5023945;28;20376;-78
2021/05/14 12:57:06;;;;;;;536.80;477.98;;;;;;;;;;5050742;28;20025;-77
2021/05/14 12:59:32;;;;;;;551.40;491.65;;;;;;;;;;5035500;28;20025;-77
2021/05/14 13:01:58;;;;;;;556.17;496.10;;;;;;;;;;5033766;28;20387;-80
2021/05/14 13:04:28;;;;;;;568.08;507.90;;;;;;;;;;5033641;28;20021;-79
2021/05/14 13:06:54;;;;;;;;;;;;;;;;;;5051593;28;20074;-79
2021/05/14 13:09:21;;;;;;;606.30;545.28;;;;;;;;;;5034884;28;19991;-81
2021/05/14 13:11:47;;;;;;;635.75;574.63;;;;;;;;;;5035225;28;20435;-75
2021/05/14 13:14:13;;;;;;;627.42;566.95;;;;;;;;;;5034680;28;20082;-81
2021/05/14 13:16:39;;;;;;;645.25;584.30;;;;;;;;;;5052725;28;20103;-78
2021/05/14 13:19:05;;;;;;;640.33;580.22;;;;;;;;;;5052960;28;20056;-81
2021/05/14 13:21:32;;;;;;;643.40;583.40;;;;;;;;;;5051842;28;20840;-76
2021/05/14 13:23:58;;;;;;;637.08;576.88;;;;;;;;;;5038272;28;20020;-82
2021/05/14 13:26:25;;;;;;;631.17;571.08;;;;;;;;;;5030640;28;20017;-83
2021/05/14 13:28:51;;;;;;;608.35;548.15;;;;;;;;;;5034944;28;20056;-84
2021/05/14 13:31:23;;;;;;;616.72;555.70;;;;;;;;;;5030657;28;20028;-83
2021/05/14 13:33:49;;;;;;;602.45;541.65;;;;;;;;;;5035260;28;20499;-79
2021/05/14 13:36:15;;;;;;;588.10;527.20;;;;;;;;;;5035176;28;20028;-83
2021/05/14 13:38:42;;;;;;;574.22;513.33;;;;;;;;;;5034815;28;20025;-81
2021/05/14 13:41:08;;;;;;;559.35;497.83;;;;;;;;;;5034939;28;20025;-78
2021/05/14 13:43:35;;;;;;;569.63;508.23;;;;;;;;;;5034998;28;20052;-83
2021/05/14 13:46:01;;;;;;;571.75;510.80;;;;;;;;;;5034942;28;20059;-82
2021/05/14 13:48:28;;;;;;;571.35;510.42;;;;;;;;;;5034327;28;20024;-84
2021/05/14 13:50:55;;;;;;;572.63;511.90;;;;;;;;;;5034753;28;20071;-83
2021/05/14 13:53:24;;;;;;;584.55;523.25;;;;;;;;;;5052174;28;20070;-82
2021/05/14 13:55:50;;;;;;;591.37;529.50;;;;;;;;;;5046906;28;20132;-80
2021/05/14 13:58:16;;;;;;;603.75;541.70;;;;;;;;;;5034728;28;20798;-81
2021/05/14 14:00:43;;;;;;;608.42;546.60;;;;;;;;;;5033444;28;20140;-82
2021/05/14 14:03:09;;;;;;;602.47;541.17;;;;;;;;;;5037814;28;20021;-81